Jersey Village, Texas
Current Conditions -  °F | °C
As of 1:15 AM on Friday 31 Oct 2014 (Local Time) from KMCJ Reporting Station
Few Clouds Few Clouds  
Wind Chill: 66°   Ceiling: Unl
Heat Index: 66°   Visibility: 10mi
Dew Point: 55°   Wind: 0mph
Humidity: 68%   Direction: NA
Pressure: 30.07"   Gusts: NA
Location:  29.8565°N, 95.5841°W
Report Text: KMCJ 310615Z AUTO 00000KT 10SM FEW110 19/13 A3007 RMK AO1
Loading
Personal Weather Stations






























Interactive Weather Map
Tropical Storm Tracking
New forecast layout! Learn more

10-Day Weather Forecast

Advertisements
Track Severe Weather on mobile